Time;durP1;ratioP1;P1;durP2;ratioP2;P2;SDS_P1;SDS_P2;PMS_P1;PMS_P2;Temp;Humidity;BMP_temperature;BMP_pressure;BME280_temperature;BME280_humidity;BME280_pressure;Samples;Min_cycle;Max_cycle;Signal;HPM_P1;HPM_P2
2023/04/19 00:00:20;;;;;;;16.15;8.32;;;12.00;82.30;;;;;;5116330;28;20028;-75
2023/04/19 00:02:48;;;;;;;15.27;8.68;;;12.00;82.30;;;;;;5116346;28;20038;-75
2023/04/19 00:05:14;;;;;;;14.65;8.32;;;12.00;82.40;;;;;;5116232;28;20024;-75
2023/04/19 00:07:40;;;;;;;15.88;8.65;;;12.00;82.60;;;;;;5116215;28;20031;-75
2023/04/19 00:10:06;;;;;;;14.27;8.95;;;12.00;82.80;;;;;;5116181;28;20024;-75
2023/04/19 00:12:32;;;;;;;13.48;8.43;;;12.00;83.00;;;;;;5115081;28;20019;-75
2023/04/19 00:14:58;;;;;;;14.75;8.15;;;12.00;83.00;;;;;;5116043;28;20032;-75
2023/04/19 00:17:23;;;;;;;13.82;8.20;;;12.00;82.90;;;;;;5115153;28;20028;-75
2023/04/19 00:19:49;;;;;;;15.65;8.85;;;12.00;83.20;;;;;;5115044;28;20039;-76
2023/04/19 00:22:16;;;;;;;16.45;8.85;;;12.00;83.40;;;;;;5115972;28;20110;-76
2023/04/19 00:24:41;;;;;;;15.70;8.50;;;12.00;83.40;;;;;;5115804;28;20024;-75
2023/04/19 00:27:07;;;;;;;13.23;7.88;;;12.00;83.50;;;;;;5115803;28;20495;-75
2023/04/19 00:29:33;;;;;;;16.30;7.82;;;12.00;83.50;;;;;;5114830;28;20038;-76
2023/04/19 00:31:58;;;;;;;14.23;8.50;;;12.00;83.50;;;;;;5115774;28;20024;-76
2023/04/19 00:34:24;;;;;;;14.43;8.75;;;12.00;83.50;;;;;;5114694;28;20032;-76
2023/04/19 00:36:49;;;;;;;14.68;8.25;;;12.00;83.50;;;;;;5115610;28;20031;-76
2023/04/19 00:39:15;;;;;;;15.00;8.43;;;12.00;83.50;;;;;;5114057;28;20035;-76
2023/04/19 00:41:40;;;;;;;14.40;8.32;;;12.00;83.50;;;;;;5115526;28;20032;-76
2023/04/19 00:44:06;;;;;;;15.68;8.05;;;12.00;83.50;;;;;;5097577;28;20028;-76
2023/04/19 00:46:32;;;;;;;13.05;7.95;;;12.00;83.70;;;;;;5115352;28;20032;-76
2023/04/19 00:48:58;;;;;;;14.68;8.35;;;12.00;83.80;;;;;;5115386;28;20051;-76
2023/04/19 00:51:25;;;;;;;13.95;7.72;;;12.00;83.90;;;;;;5115336;28;20041;-76
2023/04/19 00:53:51;;;;;;;16.08;8.18;;;12.00;84.10;;;;;;5114951;28;20097;-76
2023/04/19 00:56:20;;;;;;;15.60;8.70;;;12.00;84.00;;;;;;5115287;28;20055;-76
2023/04/19 00:58:47;;;;;;;17.55;8.85;;;12.00;84.10;;;;;;5115267;28;20038;-76
2023/04/19 01:01:13;;;;;;;16.20;8.60;;;12.00;84.40;;;;;;5115166;28;20028;-76
2023/04/19 01:03:39;;;;;;;15.80;7.97;;;12.00;84.40;;;;;;5097355;28;20042;-76
2023/04/19 01:06:04;;;;;;;16.58;9.27;;;12.00;84.40;;;;;;5114998;28;20078;-76
2023/04/19 01:08:30;;;;;;;15.43;9.27;;;12.00;84.60;;;;;;5115151;28;20028;-76
2023/04/19 01:10:55;;;;;;;15.80;8.00;;;12.00;85.00;;;;;;5115001;28;20056;-76
2023/04/19 01:13:21;;;;;;;19.30;9.50;;;12.00;84.80;;;;;;5115008;28;20084;-76
2023/04/19 01:15:47;;;;;;;13.82;8.25;;;12.00;85.00;;;;;;5114856;28;20034;-76
2023/04/19 01:18:12;;;;;;;16.10;8.38;;;12.00;85.30;;;;;;5114881;28;20070;-75
2023/04/19 01:20:38;;;;;;;15.40;9.05;;;12.00;85.60;;;;;;5114017;28;20043;-76
2023/04/19 01:23:04;;;;;;;15.05;9.20;;;12.00;85.90;;;;;;5113730;28;20035;-76
2023/04/19 01:25:30;;;;;;;15.43;8.70;;;12.00;86.00;;;;;;5113627;28;20123;-76
2023/04/19 01:27:55;;;;;;;18.75;9.70;;;12.00;86.20;;;;;;5114476;28;20035;-76
2023/04/19 01:30:21;;;;;;;17.73;9.63;;;12.00;86.30;;;;;;5114597;28;20035;-76
2023/04/19 01:32:46;;;;;;;18.50;9.57;;;12.00;86.60;;;;;;5114572;28;20046;-76
2023/04/19 01:35:12;;;;;;;14.25;8.35;;;12.00;86.50;;;;;;5114443;28;20068;-76
2023/04/19 01:37:38;;;;;;;17.73;8.63;;;12.00;86.50;;;;;;5114458;28;20048;-76
2023/04/19 01:40:04;;;;;;;17.42;8.90;;;12.00;86.90;;;;;;5113492;28;20032;-76
2023/04/19 01:42:30;;;;;;;13.75;8.57;;;12.10;87.10;;;;;;5113361;28;20036;-76
2023/04/19 01:44:56;;;;;;;19.08;9.95;;;12.00;87.00;;;;;;5114442;28;20035;-76
2023/04/19 01:47:23;;;;;;;17.48;9.32;;;12.10;87.00;;;;;;5114269;28;20021;-76
2023/04/19 01:49:49;;;;;;;15.98;8.65;;;12.00;87.10;;;;;;5113213;28;20031;-76
2023/04/19 01:52:15;;;;;;;19.42;9.20;;;12.00;87.10;;;;;;5112662;28;20028;-76
2023/04/19 01:54:40;;;;;;;16.92;9.65;;;12.00;87.30;;;;;;5114012;28;20059;-76
2023/04/19 01:57:06;;;;;;;16.42;8.98;;;12.00;87.30;;;;;;5114107;28;20028;-76
2023/04/19 01:59:31;;;;;;;14.52;8.02;;;12.00;87.20;;;;;;5114080;28;20031;-76
2023/04/19 02:01:57;;;;;;;14.45;7.75;;;12.00;87.00;;;;;;5114108;28;20469;-76
2023/04/19 02:04:23;;;;;;;14.88;8.68;;;11.90;87.00;;;;;;5113009;28;20031;-76
2023/04/19 02:06:48;;;;;;;15.05;8.32;;;11.90;87.20;;;;;;5113950;28;20024;-76
2023/04/19 02:09:14;;;;;;;17.23;8.65;;;12.00;87.30;;;;;;5113712;28;20092;-76
2023/04/19 02:11:40;;;;;;;14.52;8.20;;;11.90;87.30;;;;;;5113873;28;20024;-76
2023/04/19 02:14:05;;;;;;;14.85;8.05;;;11.90;87.50;;;;;;5112915;28;20035;-76
2023/04/19 02:16:31;;;;;;;15.55;8.32;;;12.00;87.40;;;;;;5113935;28;20036;-76
2023/04/19 02:18:57;;;;;;;15.75;8.25;;;12.00;87.50;;;;;;5112834;28;20035;-76
2023/04/19 02:21:23;;;;;;;14.40;7.97;;;12.00;87.40;;;;;;5113758;28;20024;-76
2023/04/19 02:23:48;;;;;;;13.82;7.72;;;12.00;87.50;;;;;;5113851;28;20036;-76
2023/04/19 02:26:14;;;;;;;15.45;8.05;;;11.90;87.50;;;;;;5112621;28;20103;-76
2023/04/19 02:28:40;;;;;;;16.23;8.63;;;12.00;87.40;;;;;;5113815;28;20031;-76
2023/04/19 02:31:06;;;;;;;13.32;8.00;;;12.00;87.30;;;;;;5113616;28;20024;-76
2023/04/19 02:33:31;;;;;;;15.95;8.52;;;12.00;87.40;;;;;;5112628;28;20027;-76
2023/04/19 02:35:57;;;;;;;15.38;8.52;;;12.00;87.30;;;;;;5113562;28;20028;-76
2023/04/19 02:38:22;;;;;;;13.73;7.90;;;12.00;87.30;;;;;;5113532;28;20538;-76
2023/04/19 02:40:48;;;;;;;15.65;8.00;;;12.00;87.30;;;;;;5113486;28;20036;-76
2023/04/19 02:43:14;;;;;;;13.93;7.93;;;12.00;87.50;;;;;;5113492;28;20032;-76
2023/04/19 02:45:39;;;;;;;13.43;7.68;;;11.90;87.60;;;;;;5112451;28;20084;-76
2023/04/19 02:48:05;;;;;;;14.32;8.02;;;12.00;87.60;;;;;;5112540;28;20032;-76
2023/04/19 02:50:32;;;;;;;13.98;8.07;;;11.90;87.50;;;;;;5112446;28;20020;-76
2023/04/19 02:52:57;;;;;;;16.45;8.15;;;11.90;88.40;;;;;;5112367;28;20051;-76
2023/04/19 02:55:23;;;;;;;12.88;7.18;;;11.90;88.40;;;;;;5095331;28;20052;-76
2023/04/19 02:57:49;;;;;;;14.00;7.95;;;12.00;87.60;;;;;;5113400;28;20106;-76
2023/04/19 03:00:15;;;;;;;13.73;7.40;;;12.00;87.50;;;;;;5112384;28;20036;-76
2023/04/19 03:02:42;;;;;;;13.35;7.65;;;11.90;87.50;;;;;;5114595;28;20039;-76
2023/04/19 03:05:09;;;;;;;12.35;7.53;;;11.90;87.50;;;;;;5117338;28;20091;-76
2023/04/19 03:07:35;;;;;;;13.25;7.97;;;11.90;87.40;;;;;;5117389;28;20020;-76
2023/04/19 03:10:01;;;;;;;13.02;7.55;;;11.90;87.60;;;;;;5117388;28;20016;-76
2023/04/19 03:12:26;;;;;;;12.88;7.90;;;11.90;87.50;;;;;;5117329;28;20028;-76
2023/04/19 03:14:52;;;;;;;13.27;7.10;;;11.90;87.80;;;;;;5117236;28;20024;-76
2023/04/19 03:17:18;;;;;;;14.48;8.30;;;11.80;87.80;;;;;;5116200;28;20032;-76
2023/04/19 03:19:43;;;;;;;14.18;8.13;;;11.90;87.60;;;;;;5116187;28;20039;-76
2023/04/19 03:22:09;;;;;;;11.82;7.30;;;11.90;87.60;;;;;;5117092;28;20028;-76
2023/04/19 03:24:34;;;;;;;14.30;7.70;;;11.90;87.50;;;;;;5116912;28;20048;-76
2023/04/19 03:27:01;;;;;;;12.52;7.25;;;11.90;87.40;;;;;;5117001;28;20028;-76
2023/04/19 03:29:27;;;;;;;15.63;7.80;;;11.90;87.50;;;;;;5117003;28;20024;-76
2023/04/19 03:31:52;;;;;;;15.45;8.00;;;11.90;87.50;;;;;;5099007;28;20094;-76
2023/04/19 03:34:18;;;;;;;12.68;7.68;;;11.80;87.50;;;;;;5115928;28;20020;-76
2023/04/19 03:36:44;;;;;;;12.98;7.43;;;11.90;87.50;;;;;;5115827;28;20039;-76
2023/04/19 03:39:09;;;;;;;10.90;6.47;;;11.80;87.30;;;;;;5116776;28;20084;-76
2023/04/19 03:41:35;;;;;;;13.18;7.38;;;11.80;87.30;;;;;;5116718;28;20032;-76
2023/04/19 03:44:00;;;;;;;14.10;7.22;;;11.80;87.30;;;;;;5116687;28;20028;-76
2023/04/19 03:46:30;;;;;;;12.27;6.65;;;11.70;87.50;;;;;;5115773;28;20059;-76
2023/04/19 03:48:56;;;;;;;13.18;7.57;;;11.70;87.40;;;;;;5115758;28;20032;-76
2023/04/19 03:51:21;;;;;;;10.98;6.63;;;11.70;87.30;;;;;;5116565;28;20539;-76
2023/04/19 03:53:47;;;;;;;12.82;6.88;;;11.70;87.20;;;;;;5116448;28;20094;-76
2023/04/19 03:56:13;;;;;;;14.00;6.88;;;11.60;87.20;;;;;;5098619;28;20039;-76
2023/04/19 03:58:38;;;;;;;10.48;6.38;;;11.60;87.10;;;;;;5116412;28;20028;-76
2023/04/19 04:01:07;;;;;;;12.15;6.50;;;11.60;86.90;;;;;;5115567;28;20032;-76
2023/04/19 04:03:32;;;;;;;12.13;6.57;;;11.50;86.70;;;;;;5116343;28;20024;-76
2023/04/19 04:05:58;;;;;;;10.23;5.82;;;11.50;86.90;;;;;;5116221;28;20043;-76
2023/04/19 04:08:24;;;;;;;9.70;5.57;;;11.50;86.60;;;;;;5116229;28;20084;-76
2023/04/19 04:10:49;;;;;;;14.02;6.60;;;11.40;86.50;;;;;;5116166;28;20031;-76
2023/04/19 04:13:15;;;;;;;11.52;6.07;;;11.40;86.50;;;;;;5098164;28;20031;-76
2023/04/19 04:15:41;;;;;;;9.23;5.32;;;11.40;86.40;;;;;;5115317;28;20039;-76
2023/04/19 04:18:07;;;;;;;9.20;5.70;;;11.40;86.40;;;;;;5116134;28;20035;-76
2023/04/19 04:20:32;;;;;;;12.65;5.95;;;11.40;86.40;;;;;;5115985;28;20039;-76
2023/04/19 04:22:58;;;;;;;10.20;5.65;;;11.30;86.30;;;;;;5115912;28;20024;-76
2023/04/19 04:25:24;;;;;;;10.70;5.57;;;11.40;86.20;;;;;;5115954;28;20036;-76
2023/04/19 04:27:51;;;;;;;9.82;5.60;;;11.30;86.10;;;;;;5098203;28;20020;-76
2023/04/19 04:30:16;;;;;;;12.55;5.90;;;11.30;86.20;;;;;;5115868;28;20021;-76
2023/04/19 04:32:43;;;;;;;10.77;5.80;;;11.30;86.20;;;;;;5115712;28;20051;-76
2023/04/19 04:35:10;;;;;;;10.45;5.97;;;11.30;86.20;;;;;;5115664;28;20023;-76
2023/04/19 04:37:36;;;;;;;12.32;5.93;;;11.30;86.10;;;;;;5115710;28;20031;-76
2023/04/19 04:40:05;;;;;;;10.38;6.22;;;11.30;86.00;;;;;;5115613;28;20028;-76
2023/04/19 04:42:32;;;;;;;11.05;5.93;;;11.30;85.90;;;;;;5115515;28;20024;-76
2023/04/19 04:45:00;;;;;;;10.73;5.90;;;11.30;86.30;;;;;;5115409;28;20084;-76
2023/04/19 04:47:33;;;;;;;8.75;5.70;;;11.30;85.60;;;;;;5115437;28;20059;-76
2023/04/19 04:50:01;;;;;;;12.10;6.43;;;11.20;85.60;;;;;;5115447;28;20016;-76
2023/04/19 04:52:26;;;;;;;10.10;5.18;;;11.30;85.60;;;;;;5114473;28;20088;-76
2023/04/19 04:54:52;;;;;;;12.10;5.60;;;11.20;85.60;;;;;;5114932;28;20048;-76
2023/04/19 04:57:18;;;;;;;10.65;5.70;;;11.20;85.60;;;;;;5115188;28;20060;-76
2023/04/19 04:59:45;;;;;;;10.82;5.63;;;11.10;85.50;;;;;;5115224;28;20038;-76
2023/04/19 05:02:10;;;;;;;8.25;4.68;;;11.10;85.40;;;;;;5115162;28;20020;-76
2023/04/19 05:04:36;;;;;;;9.77;4.93;;;11.00;85.50;;;;;;5114015;28;20035;-76
2023/04/19 05:07:01;;;;;;;9.13;4.95;;;10.90;85.50;;;;;;5114018;28;20021;-76
2023/04/19 05:09:27;;;;;;;8.98;4.68;;;11.00;85.30;;;;;;5114928;28;20032;-76
2023/04/19 05:11:53;;;;;;;9.00;4.85;;;10.90;85.20;;;;;;5115000;28;20038;-76
2023/04/19 05:14:18;;;;;;;8.52;4.63;;;10.90;85.10;;;;;;5114961;28;20020;-76
2023/04/19 05:16:45;;;;;;;9.15;5.15;;;11.00;85.20;;;;;;5114866;28;20039;-76
2023/04/19 05:19:10;;;;;;;8.60;4.72;;;11.00;85.10;;;;;;5097074;28;20488;-76
2023/04/19 05:21:36;;;;;;;10.90;4.78;;;11.00;84.70;;;;;;5114773;28;20054;-76
2023/04/19 05:24:02;;;;;;;8.95;4.90;;;11.10;84.50;;;;;;5114729;28;20049;-76
2023/04/19 05:26:27;;;;;;;8.38;4.90;;;11.00;83.90;;;;;;5114552;28;20059;-76
2023/04/19 05:28:53;;;;;;;9.40;4.53;;;11.10;83.10;;;;;;5114639;28;20032;-76
2023/04/19 05:31:19;;;;;;;9.10;4.80;;;11.10;83.30;;;;;;5114702;28;20020;-75
2023/04/19 05:33:45;;;;;;;8.35;4.63;;;11.10;83.00;;;;;;5113644;28;20020;-75
2023/04/19 05:36:11;;;;;;;9.98;5.25;;;11.10;82.70;;;;;;5096995;28;20025;-73
2023/04/19 05:38:36;;;;;;;8.13;4.75;;;11.10;81.90;;;;;;5096623;28;20031;-73
2023/04/19 05:41:04;;;;;;;8.98;4.80;;;11.20;81.50;;;;;;5113368;28;20028;-74
2023/04/19 05:43:30;;;;;;;9.18;4.68;;;11.10;82.30;;;;;;5114344;28;20031;-74
2023/04/19 05:45:56;;;;;;;8.07;4.60;;;11.10;80.90;;;;;;5114254;28;20079;-74
2023/04/19 05:48:22;;;;;;;7.57;4.78;;;11.20;80.10;;;;;;5114549;28;20012;-74
2023/04/19 05:50:47;;;;;;;9.15;4.70;;;11.20;80.20;;;;;;5114128;28;20032;-74
2023/04/19 05:53:13;;;;;;;9.20;4.97;;;11.10;80.30;;;;;;5096360;28;20032;-74
2023/04/19 05:55:39;;;;;;;7.38;4.40;;;11.10;79.60;;;;;;5113027;28;20052;-74
2023/04/19 05:58:04;;;;;;;8.95;4.68;;;11.20;79.80;;;;;;5113232;28;20043;-74
2023/04/19 06:00:31;;;;;;;6.88;4.45;;;11.20;79.60;;;;;;5114078;28;20020;-74
2023/04/19 06:02:56;;;;;;;8.73;4.60;;;11.10;79.50;;;;;;5113056;28;20024;-74
2023/04/19 06:05:22;;;;;;;8.95;4.70;;;11.10;79.30;;;;;;5113908;28;20054;-74
2023/04/19 06:07:48;;;;;;;7.75;4.72;;;11.10;79.10;;;;;;5113947;28;20036;-74
2023/04/19 06:10:14;;;;;;;9.25;5.10;;;11.10;79.20;;;;;;5113023;28;20075;-74
2023/04/19 06:12:39;;;;;;;9.93;4.28;;;11.10;78.50;;;;;;5113863;28;20073;-74
2023/04/19 06:15:06;;;;;;;7.05;4.13;;;11.10;78.20;;;;;;5113837;28;20020;-74
2023/04/19 06:17:31;;;;;;;7.35;4.50;;;11.10;78.00;;;;;;5113757;28;20103;-74
2023/04/19 06:19:57;;;;;;;7.88;4.38;;;11.10;78.10;;;;;;5113868;28;20032;-74
2023/04/19 06:22:22;;;;;;;8.50;5.18;;;11.10;78.40;;;;;;5113711;28;20043;-75
2023/04/19 06:24:48;;;;;;;7.35;4.43;;;11.20;78.60;;;;;;5112881;28;20039;-74
2023/04/19 06:27:15;;;;;;;7.65;4.38;;;11.20;77.90;;;;;;5113487;28;20031;-74
2023/04/19 06:29:41;;;;;;;7.10;4.18;;;11.20;77.80;;;;;;5113598;28;20023;-73
2023/04/19 06:32:07;;;;;;;6.78;4.53;;;11.20;77.30;;;;;;5113637;28;20083;-74
2023/04/19 06:34:33;;;;;;;5.82;4.03;;;11.30;77.10;;;;;;5113470;28;20024;-74
2023/04/19 06:36:59;;;;;;;8.82;4.63;;;11.30;76.20;;;;;;5113070;28;20027;-74
2023/04/19 06:39:26;;;;;;;9.18;4.95;;;11.30;75.90;;;;;;5112546;28;20024;-75
2023/04/19 06:41:51;;;;;;;8.15;4.30;;;11.40;75.80;;;;;;5095839;28;20028;-74
2023/04/19 06:44:18;;;;;;;10.40;5.10;;;11.40;75.40;;;;;;5112430;28;20020;-73
2023/04/19 06:46:44;;;;;;;9.10;4.18;;;11.50;75.30;;;;;;5113414;28;20035;-73
2023/04/19 06:49:10;;;;;;;8.13;4.43;;;11.50;75.50;;;;;;5112409;28;20484;-73
2023/04/19 06:51:38;;;;;;;10.30;4.57;;;11.50;74.80;;;;;;5113422;28;20048;-73
2023/04/19 06:54:04;;;;;;;8.38;4.22;;;11.50;75.10;;;;;;5112177;28;20036;-74
2023/04/19 06:56:46;;;;;;;7.88;4.85;;;11.60;73.90;;;;;;5112354;28;20062;-73
2023/04/19 06:59:16;;;;;;;;;;;11.50;74.10;;;;;;5112694;28;20028;-73
2023/04/19 07:02:08;;;;;;;6.97;4.22;;;11.60;74.10;;;;;;5113326;28;19931;-73
2023/04/19 07:04:35;;;;;;;8.27;4.32;;;11.60;74.30;;;;;;5096702;28;20059;-73
2023/04/19 07:07:01;;;;;;;10.50;4.65;;;11.60;74.70;;;;;;5112402;28;20031;-73
2023/04/19 07:09:27;;;;;;;6.70;4.07;;;11.60;75.30;;;;;;5112143;28;20028;-73
2023/04/19 07:11:53;;;;;;;6.57;4.20;;;11.70;74.00;;;;;;5113235;28;20048;-73
2023/04/19 07:14:19;;;;;;;7.50;4.68;;;11.80;73.00;;;;;;5113196;28;20031;-73
2023/04/19 07:16:46;;;;;;;8.18;4.32;;;11.90;72.60;;;;;;5112132;28;20024;-73
2023/04/19 07:19:12;;;;;;;6.05;3.80;;;11.90;73.00;;;;;;5113156;28;20028;-73
2023/04/19 07:21:38;;;;;;;9.07;4.25;;;12.00;71.50;;;;;;5113158;28;20439;-73
2023/04/19 07:24:05;;;;;;;8.55;4.47;;;12.00;70.40;;;;;;5113129;28;20020;-74
2023/04/19 07:26:31;;;;;;;7.25;4.57;;;12.10;70.60;;;;;;5113040;28;20051;-73
2023/04/19 07:28:57;;;;;;;7.47;4.32;;;12.10;69.10;;;;;;5113028;28;20088;-74
2023/04/19 07:31:24;;;;;;;7.32;3.85;;;12.20;67.80;;;;;;5095236;28;20093;-73
2023/04/19 07:33:50;;;;;;;8.20;4.50;;;12.30;68.30;;;;;;5112903;28;20024;-73
2023/04/19 07:36:16;;;;;;;8.82;3.90;;;12.40;68.10;;;;;;5112015;28;20025;-73
2023/04/19 07:38:42;;;;;;;6.43;3.97;;;12.40;68.20;;;;;;5112075;28;20039;-73
2023/04/19 07:41:08;;;;;;;7.32;3.95;;;12.50;68.30;;;;;;5111980;28;20127;-73
2023/04/19 07:43:34;;;;;;;7.25;3.85;;;12.50;66.50;;;;;;5112975;28;20070;-73
2023/04/19 07:46:00;;;;;;;7.78;4.03;;;12.60;65.40;;;;;;5112825;28;20036;-73
2023/04/19 07:48:25;;;;;;;6.25;3.85;;;12.60;64.80;;;;;;5112052;28;20020;-73
2023/04/19 07:50:51;;;;;;;7.97;4.32;;;12.70;64.10;;;;;;5114903;28;20024;-74
2023/04/19 07:53:21;;;;;;;5.60;3.53;;;12.70;63.30;;;;;;5116570;28;20028;-73
2023/04/19 07:55:58;;;;;;;7.50;3.80;;;12.80;63.80;;;;;;5115472;28;20076;-73
2023/04/19 07:58:27;;;;;;;6.93;3.65;;;12.80;63.30;;;;;;5116576;28;20088;-73
2023/04/19 08:01:06;;;;;;;7.95;3.90;;;12.90;63.00;;;;;;5056831;28;20033;-73
2023/04/19 08:03:40;;;;;;;7.25;3.70;;;13.00;60.70;;;;;;5074112;28;20068;-73
2023/04/19 08:06:07;;;;;;;5.60;3.60;;;13.10;62.10;;;;;;5057419;28;20032;-73
2023/04/19 08:08:34;;;;;;;6.35;3.35;;;13.20;61.70;;;;;;5074120;28;20071;-74
2023/04/19 08:11:01;;;;;;;5.85;3.45;;;13.20;61.70;;;;;;5074076;28;20056;-73
2023/04/19 08:13:27;;;;;;;6.32;4.00;;;13.30;60.00;;;;;;5073943;28;20027;-74
2023/04/19 08:15:52;;;;;;;7.75;3.90;;;13.30;60.40;;;;;;5073971;28;20091;-73
2023/04/19 08:18:18;;;;;;;5.88;3.70;;;13.40;57.40;;;;;;5057337;28;20085;-73
2023/04/19 08:20:46;;;;;;;5.82;3.63;;;13.40;57.20;;;;;;5057365;28;20033;-74
2023/04/19 08:23:12;;;;;;;5.07;3.17;;;13.50;57.80;;;;;;5056904;28;20088;-74
2023/04/19 08:25:38;;;;;;;5.28;3.40;;;13.50;57.40;;;;;;5073675;28;20041;-73
2023/04/19 08:28:04;;;;;;;6.15;3.40;;;13.50;56.70;;;;;;5056936;28;20021;-73
2023/04/19 08:30:30;;;;;;;8.27;3.17;;;13.60;57.90;;;;;;5073859;28;20044;-73
2023/04/19 08:32:56;;;;;;;7.07;3.22;;;13.60;57.70;;;;;;5056914;28;20056;-73
2023/04/19 08:35:22;;;;;;;5.35;2.92;;;13.70;54.70;;;;;;5040191;28;20029;-73
2023/04/19 08:37:54;;;;;;;5.80;2.70;;;13.70;53.50;;;;;;5057008;28;20048;-74
2023/04/19 08:40:19;;;;;;;4.40;2.92;;;13.70;54.90;;;;;;5073558;28;20062;-74
2023/04/19 08:42:45;;;;;;;3.80;2.60;;;13.70;53.60;;;;;;5073602;28;20037;-74
2023/04/19 08:45:12;;;;;;;5.57;2.90;;;13.80;52.90;;;;;;5104042;28;20035;-74
2023/04/19 08:47:39;;;;;;;6.18;3.03;;;13.90;53.20;;;;;;5114558;28;20047;-73
2023/04/19 08:50:06;;;;;;;4.97;2.90;;;13.90;53.20;;;;;;5114488;28;20016;-73
2023/04/19 08:53:00;;;;;;;4.57;3.08;;;13.90;53.40;;;;;;5115329;28;20031;-71
2023/04/19 08:55:47;;;;;;;6.20;3.10;;;14.00;51.60;;;;;;5105560;28;20043;-73
2023/04/19 08:58:25;;;;;;;5.75;2.85;;;14.10;53.10;;;;;;5114845;28;20031;-73
2023/04/19 09:00:59;;;;;;;4.85;2.95;;;14.10;56.00;;;;;;5113724;28;20114;-73
2023/04/19 09:03:25;;;;;;;5.70;2.80;;;14.10;56.40;;;;;;5114203;28;20032;-73
2023/04/19 09:05:51;;;;;;;5.85;2.90;;;14.10;55.20;;;;;;5115069;28;20020;-74
2023/04/19 09:08:26;;;;;;;8.88;3.20;;;14.20;55.50;;;;;;5115015;28;20055;-73
2023/04/19 09:10:57;;;;;;;5.00;2.72;;;14.20;54.70;;;;;;5114137;28;20028;-73
2023/04/19 09:13:23;;;;;;;8.15;3.10;;;14.20;54.00;;;;;;5114131;28;20020;-73
2023/04/19 09:15:49;;;;;;;5.78;3.03;;;14.30;53.60;;;;;;5115004;28;20549;-73
2023/04/19 09:18:14;;;;;;;5.82;3.13;;;14.40;54.80;;;;;;5114962;28;20024;-73
2023/04/19 09:20:44;;;;;;;18.67;8.95;;;14.40;54.70;;;;;;5114853;28;20016;-74
2023/04/19 09:23:11;;;;;;;10.65;5.32;;;14.40;55.10;;;;;;5114016;28;20038;-74
2023/04/19 09:25:38;;;;;;;4.75;2.70;;;14.50;55.30;;;;;;5114646;28;20027;-73
2023/04/19 09:28:14;;;;;;;5.22;2.67;;;14.50;55.60;;;;;;5114741;28;20029;-74
2023/04/19 09:30:40;;;;;;;5.65;2.67;;;14.60;55.70;;;;;;5114651;28;20023;-74
2023/04/19 09:33:07;;;;;;;5.20;2.35;;;14.80;53.90;;;;;;5113467;28;20020;-74
2023/04/19 09:35:48;;;;;;;5.15;2.55;;;14.80;51.60;;;;;;5114531;28;20097;-74
2023/04/19 09:38:15;;;;;;;5.20;2.90;;;14.80;51.30;;;;;;5114510;28;20020;-74
2023/04/19 09:40:42;;;;;;;3.70;1.95;;;14.80;51.70;;;;;;5114478;28;20044;-73
2023/04/19 09:43:08;;;;;;;4.05;2.00;;;14.80;50.10;;;;;;5113639;28;20086;-73
2023/04/19 09:45:44;;;;;;;3.85;2.38;;;14.80;48.20;;;;;;5113384;28;20044;-73
2023/04/19 09:48:11;;;;;;;3.78;1.95;;;14.80;47.90;;;;;;5114362;28;20442;-73
2023/04/19 09:51:02;;;;;;;5.30;2.38;;;14.90;48.50;;;;;;5114278;28;20035;-74
2023/04/19 09:53:39;;;;;;;2.80;1.60;;;14.90;46.90;;;;;;5114250;28;20032;-73
2023/04/19 09:56:06;;;;;;;3.08;1.58;;;15.00;47.20;;;;;;5114112;28;20050;-74
2023/04/19 09:58:31;;;;;;;3.28;2.10;;;15.00;47.00;;;;;;5113131;28;20016;-74
2023/04/19 10:00:59;;;;;;;3.47;1.52;;;15.00;44.60;;;;;;5114133;28;20053;-73
2023/04/19 10:03:29;;;;;;;1.73;1.23;;;15.00;45.70;;;;;;5114020;28;20028;-74
2023/04/19 10:05:55;;;;;;;2.00;1.40;;;14.90;45.00;;;;;;5114054;28;20020;-74
2023/04/19 10:08:20;;;;;;;2.38;1.38;;;14.90;45.30;;;;;;5113029;28;20087;-74
2023/04/19 10:10:51;;;;;;;2.70;1.38;;;15.00;44.60;;;;;;5114080;28;20032;-74
2023/04/19 10:13:22;;;;;;;1.80;1.35;;;15.00;45.30;;;;;;5112215;28;20016;-74
2023/04/19 10:15:47;;;;;;;2.97;1.38;;;15.10;45.00;;;;;;5112867;28;20100;-74
2023/04/19 10:18:14;;;;;;;3.97;1.58;;;15.10;45.80;;;;;;5112631;28;20035;-74
2023/04/19 10:20:55;;;;;;;4.25;1.30;;;15.20;45.80;;;;;;5113840;28;20048;-73
2023/04/19 10:23:22;;;;;;;1.85;1.20;;;15.30;43.20;;;;;;5113750;28;20032;-73
2023/04/19 10:25:47;;;;;;;4.38;1.90;;;15.30;45.00;;;;;;5113670;28;20028;-74
2023/04/19 10:28:16;;;;;;;3.47;1.90;;;15.50;45.80;;;;;;5113616;28;20027;-74
2023/04/19 10:31:02;;;;;;;3.00;1.45;;;15.40;45.00;;;;;;5112702;28;20029;-74
2023/04/19 10:33:35;;;;;;;3.90;1.90;;;15.40;43.50;;;;;;5113555;28;20028;-74
2023/04/19 10:36:01;;;;;;;10.07;2.38;;;15.40;45.10;;;;;;5112938;28;20024;-74
2023/04/19 10:38:51;;;;;;;3.22;1.70;;;15.50;44.60;;;;;;5113516;28;20020;-74
2023/04/19 10:41:18;;;;;;;2.90;1.75;;;15.50;45.40;;;;;;5113624;28;20040;-74
2023/04/19 10:43:54;;;;;;;3.15;1.63;;;15.50;44.30;;;;;;5113468;28;20016;-74
2023/04/19 10:46:20;;;;;;;4.90;1.63;;;15.60;46.30;;;;;;5112415;28;20024;-74
2023/04/19 10:49:02;;;;;;;2.40;1.58;;;15.70;45.10;;;;;;5113355;28;20027;-74
2023/04/19 10:51:41;;;;;;;3.70;1.60;;;15.70;44.20;;;;;;5112456;28;20028;-73
2023/04/19 10:54:08;;;;;;;2.67;1.55;;;15.70;43.20;;;;;;5113242;28;20047;-74
2023/04/19 10:56:34;;;;;;;3.58;1.80;;;15.70;42.10;;;;;;5113464;28;20032;-74
2023/04/19 10:59:00;;;;;;;2.65;1.52;;;15.70;43.40;;;;;;5113338;28;20020;-74
2023/04/19 11:01:44;;;;;;;5.10;1.90;;;15.70;43.60;;;;;;5113337;28;20020;-74
2023/04/19 11:04:11;;;;;;;2.70;1.75;;;15.80;43.30;;;;;;5113528;28;20046;-74
2023/04/19 11:06:56;;;;;;;2.85;1.85;;;15.80;45.00;;;;;;5113173;28;20028;-73
2023/04/19 11:09:33;;;;;;;3.33;1.95;;;15.90;45.10;;;;;;5113504;28;20024;-74
2023/04/19 11:12:03;;;;;;;4.85;1.70;;;16.00;44.50;;;;;;5113274;28;20028;-73
2023/04/19 11:14:33;;;;;;;3.90;2.00;;;16.10;43.20;;;;;;5112181;28;20111;-74
2023/04/19 11:17:01;;;;;;;2.70;1.50;;;16.10;42.90;;;;;;5113302;28;20024;-74
2023/04/19 11:19:27;;;;;;;3.25;1.92;;;16.10;41.70;;;;;;5113198;28;20028;-74
2023/04/19 11:21:57;;;;;;;3.10;1.65;;;16.20;40.70;;;;;;5113198;28;20021;-74
2023/04/19 11:24:22;;;;;;;4.18;1.65;;;16.20;40.80;;;;;;5115754;28;20068;-74
2023/04/19 11:26:48;;;;;;;4.45;1.73;;;16.20;40.50;;;;;;5116978;28;20392;-74
2023/04/19 11:29:14;;;;;;;3.60;1.77;;;16.30;39.50;;;;;;5117023;28;20024;-74
2023/04/19 11:31:45;;;;;;;4.25;1.90;;;16.30;39.20;;;;;;5116973;28;20021;-74
2023/04/19 11:34:11;;;;;;;3.53;1.83;;;16.30;38.60;;;;;;5116918;28;20012;-74
2023/04/19 11:36:46;;;;;;;3.80;1.85;;;16.30;39.30;;;;;;5116929;28;20032;-74
2023/04/19 11:39:13;;;;;;;3.08;1.80;;;16.40;39.60;;;;;;5116900;28;20032;-74
2023/04/19 11:41:38;;;;;;;3.55;2.00;;;16.40;38.30;;;;;;5099073;28;20024;-74
2023/04/19 11:44:12;;;;;;;3.63;2.10;;;16.50;38.00;;;;;;5115818;28;20053;-74
2023/04/19 11:46:38;;;;;;;2.38;1.88;;;16.50;37.20;;;;;;5116711;28;20087;-74
2023/04/19 11:49:03;;;;;;;3.97;2.10;;;16.50;38.30;;;;;;5116670;28;20031;-74
2023/04/19 11:51:30;;;;;;;2.33;1.50;;;16.70;36.10;;;;;;5116607;28;20073;-74
2023/04/19 11:53:55;;;;;;;5.55;2.28;;;16.70;36.00;;;;;;5116561;28;20020;-74
2023/04/19 11:56:22;;;;;;;2.00;1.48;;;16.70;36.90;;;;;;5116375;28;20048;-74
2023/04/19 11:58:48;;;;;;;4.15;1.98;;;16.80;36.10;;;;;;5116466;28;20028;-74
2023/04/19 12:01:15;;;;;;;3.40;1.95;;;16.80;35.50;;;;;;5116453;28;20064;-74
2023/04/19 12:03:51;;;;;;;3.90;2.17;;;16.90;36.70;;;;;;5115375;28;20028;-74
2023/04/19 12:06:28;;;;;;;3.30;2.10;;;16.90;34.80;;;;;;5116311;28;20028;-74
2023/04/19 12:08:55;;;;;;;3.92;1.92;;;16.90;35.30;;;;;;5116413;28;20069;-74
2023/04/19 12:11:25;;;;;;;4.07;1.95;;;16.90;35.90;;;;;;5116206;28;20021;-74
2023/04/19 12:14:12;;;;;;;2.88;2.10;;;17.00;36.40;;;;;;5116245;28;20016;-74
2023/04/19 12:16:38;;;;;;;3.85;2.28;;;17.00;35.60;;;;;;5116033;28;20049;-74
2023/04/19 12:19:18;;;;;;;2.90;1.98;;;17.00;36.60;;;;;;5116085;28;20438;-74
2023/04/19 12:21:45;;;;;;;2.92;1.98;;;17.20;36.00;;;;;;5116157;28;20032;-74
2023/04/19 12:24:13;;;;;;;3.88;2.20;;;17.10;34.20;;;;;;5115984;28;20030;-74
2023/04/19 12:26:55;;;;;;;3.95;1.90;;;17.10;34.20;;;;;;5115896;28;20023;-74
2023/04/19 12:29:21;;;;;;;2.95;1.90;;;17.10;33.30;;;;;;5115983;28;20023;-74
2023/04/19 12:31:46;;;;;;;3.70;2.20;;;17.20;34.30;;;;;;5115803;28;20024;-74
2023/04/19 12:34:12;;;;;;;3.67;2.03;;;17.30;32.70;;;;;;5115693;28;20039;-74
2023/04/19 12:36:38;;;;;;;3.25;1.98;;;17.30;33.00;;;;;;5114985;28;20054;-74
2023/04/19 12:39:03;;;;;;;3.13;2.10;;;17.30;34.80;;;;;;5115680;28;20028;-74
2023/04/19 12:41:29;;;;;;;5.60;2.47;;;17.50;33.00;;;;;;5115631;28;20107;-74
2023/04/19 12:43:55;;;;;;;5.80;2.03;;;17.50;33.70;;;;;;5115602;28;20043;-74